createdAt,value
2018-05-16T00:00:20.675Z,98473.96
2018-05-16T00:02:50.394Z,98470.66
2018-05-16T00:05:19.902Z,98484.48
2018-05-16T00:07:49.586Z,98493.22
2018-05-16T00:10:19.850Z,98506.92
2018-05-16T00:12:48.144Z,98519.30
2018-05-16T00:15:17.851Z,98526.83
2018-05-16T00:17:47.861Z,98528.34
2018-05-16T00:20:16.677Z,98532.18
2018-05-16T00:22:45.559Z,98532.59
2018-05-16T00:25:15.229Z,98547.23
2018-05-16T00:27:44.825Z,98536.53
2018-05-16T00:30:14.461Z,98542.80
2018-05-16T00:32:43.594Z,98543.30
2018-05-16T00:35:12.851Z,98554.04
2018-05-16T00:37:42.404Z,98553.89
2018-05-16T00:40:11.562Z,98562.63
2018-05-16T00:42:40.726Z,98565.69
2018-05-16T00:45:09.806Z,98561.16
2018-05-16T00:47:38.785Z,98558.76
2018-05-16T00:50:08.337Z,98555.27
2018-05-16T00:52:38.114Z,98543.11
2018-05-16T00:55:07.101Z,98551.77
2018-05-16T00:57:36.316Z,98547.17
2018-05-16T01:00:05.016Z,98548.83
2018-05-16T01:02:34.822Z,98543.78
2018-05-16T01:05:05.281Z,98549.94
2018-05-16T01:07:34.238Z,98556.76
2018-05-16T01:10:04.013Z,98559.81
2018-05-16T01:12:33.769Z,98570.02
2018-05-16T01:15:02.708Z,98579.50
2018-05-16T01:17:31.673Z,98591.05
2018-05-16T01:20:01.247Z,98592.13
2018-05-16T01:22:30.691Z,98595.41
2018-05-16T01:25:00.128Z,98595.62
2018-05-16T01:27:30.042Z,98610.06
2018-05-16T01:29:59.364Z,98621.66
2018-05-16T01:32:28.813Z,98619.31
2018-05-16T01:34:58.806Z,98612.77
2018-05-16T01:37:28.088Z,98609.58
2018-05-16T01:39:57.493Z,98600.70
2018-05-16T01:42:26.353Z,98599.17
2018-05-16T01:44:55.690Z,98607.38
2018-05-16T01:47:25.879Z,98597.20
2018-05-16T01:49:55.559Z,98597.99
2018-05-16T01:52:24.674Z,98593.72
2018-05-16T01:54:53.447Z,98594.93
2018-05-16T01:57:22.834Z,98599.78
2018-05-16T01:59:52.572Z,98600.25
2018-05-16T02:02:21.563Z,98594.70
2018-05-16T02:04:50.615Z,98593.47
2018-05-16T02:07:21.630Z,98598.66
2018-05-16T02:09:50.535Z,98599.02
2018-05-16T02:12:19.422Z,98600.73
2018-05-16T02:14:48.865Z,98603.31
2018-05-16T02:17:17.815Z,98599.16
2018-05-16T02:19:46.551Z,98599.39
2018-05-16T02:22:15.563Z,98606.95
2018-05-16T02:24:45.296Z,98609.62
2018-05-16T02:27:14.696Z,98609.08
2018-05-16T02:29:43.727Z,98611.24
2018-05-16T02:32:13.306Z,98607.00
2018-05-16T02:34:42.100Z,98603.91
2018-05-16T02:37:11.167Z,98604.55
2018-05-16T02:39:39.943Z,98598.50
2018-05-16T02:42:09.371Z,98599.88
2018-05-16T02:44:38.797Z,98605.59
2018-05-16T02:47:08.531Z,98610.50
2018-05-16T02:49:38.247Z,98620.83
2018-05-16T02:52:07.327Z,98610.72
2018-05-16T02:54:36.494Z,98599.30
2018-05-16T02:57:05.857Z,98595.19
2018-05-16T02:59:35.593Z,98594.84
2018-05-16T03:02:05.337Z,98592.16
2018-05-16T03:04:34.824Z,98585.50
2018-05-16T03:07:03.584Z,98585.81
2018-05-16T03:09:34.167Z,98580.66
2018-05-16T03:12:03.744Z,98577.30
2018-05-16T03:14:33.102Z,98570.13
2018-05-16T03:17:02.894Z,98568.17
2018-05-16T03:19:32.565Z,98567.86
2018-05-16T03:22:01.884Z,98573.34
2018-05-16T03:24:30.867Z,98585.45
2018-05-16T03:26:59.823Z,98579.70
2018-05-16T03:29:28.908Z,98580.06
2018-05-16T03:31:57.897Z,98585.17
2018-05-16T03:34:26.891Z,98584.31
2018-05-16T03:36:56.660Z,98582.27
2018-05-16T03:39:25.692Z,98581.47
2018-05-16T03:41:54.915Z,98593.72
2018-05-16T03:44:25.622Z,98598.77
2018-05-16T03:46:55.151Z,98602.81
2018-05-16T03:49:24.050Z,98614.58
2018-05-16T03:51:53.190Z,98620.57
2018-05-16T03:54:22.147Z,98615.85
2018-05-16T03:56:52.122Z,98608.61
2018-05-16T03:59:33.213Z,98621.91
2018-05-16T04:02:13.641Z,98640.64
2018-05-16T04:04:42.994Z,98644.34
2018-05-16T04:07:12.559Z,98643.57
2018-05-16T04:09:43.120Z,98649.81
2018-05-16T04:12:12.821Z,98649.41
2018-05-16T04:14:42.072Z,98647.81
2018-05-16T04:17:11.339Z,98651.73
2018-05-16T04:19:41.120Z,98642.45
2018-05-16T04:22:10.741Z,98645.23
2018-05-16T04:24:40.345Z,98659.78
2018-05-16T04:27:09.988Z,98671.48
2018-05-16T04:29:39.356Z,98682.90
2018-05-16T04:32:09.309Z,98684.19
2018-05-16T04:34:39.040Z,98687.86
2018-05-16T04:37:08.188Z,98691.59
2018-05-16T04:39:37.449Z,98693.56
2018-05-16T04:42:07.070Z,98696.84
2018-05-16T04:44:36.463Z,98699.84
2018-05-16T04:47:05.163Z,98714.50
2018-05-16T04:49:34.487Z,98727.39
2018-05-16T04:52:04.193Z,98719.34
2018-05-16T04:54:33.910Z,98718.74
2018-05-16T04:57:02.568Z,98702.41
2018-05-16T04:59:31.445Z,98695.06
2018-05-16T05:02:01.194Z,98691.77
2018-05-16T05:04:30.784Z,98675.12
2018-05-16T05:07:00.362Z,98678.60
2018-05-16T05:09:29.753Z,98679.15
2018-05-16T05:12:00.582Z,98675.09
2018-05-16T05:14:29.885Z,98668.08
2018-05-16T05:16:59.278Z,98660.51
2018-05-16T05:19:28.330Z,98659.55
2018-05-16T05:21:57.299Z,98651.00
2018-05-16T05:24:26.178Z,98659.96
2018-05-16T05:26:55.227Z,98672.46
2018-05-16T05:29:24.664Z,98677.81
2018-05-16T05:31:53.446Z,98678.09
2018-05-16T05:34:22.449Z,98666.59
2018-05-16T05:36:51.914Z,98666.13
2018-05-16T05:39:21.343Z,98661.86
2018-05-16T05:41:51.160Z,98662.55
2018-05-16T05:44:20.419Z,98665.22
2018-05-16T05:46:49.559Z,98667.16
2018-05-16T05:49:19.311Z,98668.44
2018-05-16T05:51:48.433Z,98677.35
2018-05-16T05:54:18.126Z,98680.42
2018-05-16T05:56:47.325Z,98684.76
2018-05-16T05:59:16.654Z,98677.39
2018-05-16T06:01:45.944Z,98679.17
2018-05-16T06:04:15.196Z,98671.70
2018-05-16T06:06:44.748Z,98662.13
2018-05-16T06:09:14.133Z,98664.20
2018-05-16T06:11:43.882Z,98654.66
2018-05-16T06:14:14.435Z,98650.13
2018-05-16T06:16:44.256Z,98651.92
2018-05-16T06:19:13.578Z,98650.23
2018-05-16T06:21:43.259Z,98641.39
2018-05-16T06:24:12.567Z,98637.97
2018-05-16T06:26:42.237Z,98634.99
2018-05-16T06:29:11.916Z,98623.95
2018-05-16T06:31:41.168Z,98621.29
2018-05-16T06:34:11.217Z,98621.09
2018-05-16T06:36:40.526Z,98609.53
2018-05-16T06:39:09.720Z,98597.39
2018-05-16T06:41:39.118Z,98601.73
2018-05-16T06:44:08.285Z,98596.14
2018-05-16T06:46:38.110Z,98586.05
2018-05-16T06:49:07.252Z,98584.90
2018-05-16T06:51:37.114Z,98575.41
2018-05-16T06:54:06.702Z,98570.69
2018-05-16T06:56:35.708Z,98560.69
2018-05-16T06:59:05.671Z,98561.70
2018-05-16T07:01:34.683Z,98555.94
2018-05-16T07:04:03.767Z,98561.93
2018-05-16T07:06:34.118Z,98562.34
2018-05-16T07:09:03.373Z,98555.31
2018-05-16T07:11:32.242Z,98547.27
2018-05-16T07:14:01.379Z,98545.52
2018-05-16T07:16:32.418Z,98545.52
2018-05-16T07:19:01.659Z,98530.70
2018-05-16T07:21:30.983Z,98530.59
2018-05-16T07:24:00.984Z,98529.16
2018-05-16T07:26:30.645Z,98530.91
2018-05-16T07:28:59.908Z,98519.19
2018-05-16T07:31:28.787Z,98518.89
2018-05-16T07:33:58.166Z,98511.16
2018-05-16T07:36:27.549Z,98509.61
2018-05-16T07:39:01.239Z,98512.71
2018-05-16T07:41:31.034Z,98509.02
2018-05-16T07:44:00.745Z,98508.69
2018-05-16T07:46:30.416Z,98502.72
2018-05-16T07:48:59.291Z,98509.85
2018-05-16T07:51:30.447Z,98504.57
2018-05-16T07:54:00.132Z,98504.57
2018-05-16T07:56:32.572Z,98496.73
2018-05-16T07:59:02.136Z,98493.94
2018-05-16T08:01:31.538Z,98487.13
2018-05-16T08:04:00.499Z,98487.03
2018-05-16T08:06:29.528Z,98486.94
2018-05-16T08:08:58.732Z,98481.91
2018-05-16T08:11:28.159Z,98484.91
2018-05-16T08:14:01.219Z,98479.91
2018-05-16T08:16:31.907Z,98472.81
2018-05-16T08:19:01.701Z,98473.10
2018-05-16T08:21:30.957Z,98464.64
2018-05-16T08:23:59.771Z,98462.12
2018-05-16T08:26:32.864Z,98457.22
2018-05-16T08:29:02.160Z,98449.50
2018-05-16T08:31:32.010Z,98444.75
2018-05-16T08:34:02.312Z,98444.95
2018-05-16T08:36:32.636Z,98428.75
2018-05-16T08:39:01.872Z,98427.52
2018-05-16T08:41:30.857Z,98422.95
2018-05-16T08:44:01.225Z,98415.31
2018-05-16T08:46:30.733Z,98409.22
2018-05-16T08:48:59.812Z,98401.41
2018-05-16T08:51:28.902Z,98403.03
2018-05-16T08:53:58.107Z,98391.58
2018-05-16T08:56:27.986Z,98383.71
2018-05-16T08:58:56.781Z,98381.86
2018-05-16T09:01:26.589Z,98375.15
2018-05-16T09:03:56.190Z,98373.12
2018-05-16T09:06:25.096Z,98363.53
2018-05-16T09:08:54.644Z,98360.33
2018-05-16T09:11:24.047Z,98358.37
2018-05-16T09:13:53.205Z,98361.29
2018-05-16T09:16:22.921Z,98356.92
2018-05-16T09:18:52.903Z,98361.05
2018-05-16T09:21:21.852Z,98357.44
2018-05-16T09:23:51.925Z,98351.86
2018-05-16T09:26:21.079Z,98343.30
2018-05-16T09:28:50.110Z,98341.02
2018-05-16T09:31:27.247Z,98345.33
2018-05-16T09:34:00.646Z,98334.31
2018-05-16T09:36:29.685Z,98336.58
2018-05-16T09:38:58.595Z,98333.59
2018-05-16T09:41:28.185Z,98331.31
2018-05-16T09:44:02.414Z,98329.97
2018-05-16T09:46:34.295Z,98327.97
2018-05-16T09:49:05.053Z,98327.94
2018-05-16T09:51:34.698Z,98320.15
2018-05-16T09:54:03.426Z,98329.44
2018-05-16T09:56:32.665Z,98320.00
2018-05-16T10:01:35.884Z,98307.35
2018-05-16T10:04:05.574Z,98307.98
2018-05-16T10:09:14.233Z,98305.80
2018-05-16T10:14:16.805Z,98304.87
2018-05-16T10:16:46.060Z,98297.80
2018-05-16T10:19:16.308Z,98296.45
2018-05-16T10:21:46.138Z,98290.36
2018-05-16T10:24:16.658Z,98292.65
2018-05-16T10:26:48.182Z,98290.12
2018-05-16T10:29:18.498Z,98281.38
2018-05-16T10:31:51.878Z,98280.54
2018-05-16T10:34:22.263Z,98281.45
2018-05-16T10:36:52.444Z,98276.33
2018-05-16T10:39:21.745Z,98269.91
2018-05-16T10:41:52.811Z,98265.22
2018-05-16T10:44:23.117Z,98260.23
2018-05-16T10:46:54.103Z,98257.81
2018-05-16T10:49:26.664Z,98259.05
2018-05-16T10:51:59.531Z,98261.83
2018-05-16T10:54:29.495Z,98252.94
2018-05-16T10:57:00.933Z,98255.16
2018-05-16T10:59:32.481Z,98248.91
2018-05-16T11:02:02.029Z,98243.53
2018-05-16T11:04:30.981Z,98243.90
2018-05-16T11:06:59.955Z,98242.59
2018-05-16T11:09:29.685Z,98243.66
2018-05-16T11:11:58.892Z,98239.98
2018-05-16T11:14:28.523Z,98238.84
2018-05-16T11:16:57.898Z,98239.78
2018-05-16T11:19:28.130Z,98234.86
2018-05-16T11:21:56.846Z,98237.36
2018-05-16T11:24:25.759Z,98236.12
2018-05-16T11:26:55.361Z,98229.34
2018-05-16T11:29:25.176Z,98232.33
2018-05-16T11:31:54.612Z,98229.39
2018-05-16T11:34:23.921Z,98220.30
2018-05-16T11:36:52.966Z,98230.95
2018-05-16T11:39:22.952Z,98229.59
2018-05-16T11:41:52.104Z,98224.00
2018-05-16T11:44:21.813Z,98222.25
2018-05-16T11:46:50.984Z,98222.46
2018-05-16T11:49:20.303Z,98223.20
2018-05-16T11:51:49.390Z,98220.51
2018-05-16T11:54:19.697Z,98220.92
2018-05-16T11:56:48.732Z,98216.05
2018-05-16T11:59:18.902Z,98225.06
2018-05-16T12:01:47.416Z,98212.73
2018-05-16T12:04:18.117Z,98214.28
2018-05-16T12:06:47.731Z,98221.31
2018-05-16T12:09:17.013Z,98221.33
2018-05-16T12:11:46.299Z,98220.81
2018-05-16T12:14:15.072Z,98222.46
2018-05-16T12:16:44.535Z,98219.83
2018-05-16T12:19:13.125Z,98219.50
2018-05-16T12:21:43.293Z,98224.55
2018-05-16T12:26:47.572Z,98226.89
2018-05-16T12:29:17.483Z,98223.46
2018-05-16T12:31:46.115Z,98222.23
2018-05-16T12:34:15.469Z,98225.63
2018-05-16T12:36:45.074Z,98225.09
2018-05-16T12:39:14.564Z,98226.08
2018-05-16T12:41:43.772Z,98228.05
2018-05-16T12:44:12.875Z,98229.09
2018-05-16T12:46:41.869Z,98216.48
2018-05-16T12:49:11.261Z,98231.03
2018-05-16T12:51:40.619Z,98224.73
2018-05-16T12:54:09.688Z,98230.85
2018-05-16T12:56:40.065Z,98231.05
2018-05-16T12:59:09.118Z,98235.12
2018-05-16T13:01:38.689Z,98224.38
2018-05-16T13:04:09.513Z,98231.66
2018-05-16T13:06:38.841Z,98231.24
2018-05-16T13:09:07.901Z,98228.97
2018-05-16T13:11:37.643Z,98227.07
2018-05-16T13:14:06.825Z,98226.14
2018-05-16T13:16:38.362Z,98224.00
2018-05-16T13:19:07.362Z,98227.63
2018-05-16T13:21:37.238Z,98230.22
2018-05-16T13:24:06.739Z,98227.86
2018-05-16T13:26:35.838Z,98231.66
2018-05-16T13:29:05.335Z,98227.79
2018-05-16T13:31:34.551Z,98230.39
2018-05-16T13:34:04.952Z,98232.91
2018-05-16T13:36:36.039Z,98235.30
2018-05-16T13:39:04.888Z,98236.85
2018-05-16T13:41:33.642Z,98231.59
2018-05-16T13:44:03.067Z,98243.58
2018-05-16T13:46:33.353Z,98236.23
2018-05-16T13:49:02.229Z,98247.70
2018-05-16T13:51:31.679Z,98245.94
2018-05-16T13:54:01.212Z,98247.45
2018-05-16T13:56:31.343Z,98247.59
2018-05-16T13:59:00.711Z,98241.50
2018-05-16T14:01:30.184Z,98258.03
2018-05-16T14:03:58.967Z,98250.38
2018-05-16T14:06:29.597Z,98251.31
2018-05-16T14:08:59.255Z,98250.08
2018-05-16T14:11:27.624Z,98248.84
2018-05-16T14:13:55.829Z,98249.47
2018-05-16T14:16:24.266Z,98255.00
2018-05-16T14:18:53.851Z,98251.90
2018-05-16T14:21:22.716Z,98258.78
2018-05-16T14:23:51.544Z,98261.88
2018-05-16T14:26:21.773Z,98264.05
2018-05-16T14:28:50.773Z,98260.55
2018-05-16T14:31:19.584Z,98263.58
2018-05-16T14:33:50.061Z,98263.99
2018-05-16T14:36:20.637Z,98260.19
2018-05-16T14:38:49.739Z,98266.09
2018-05-16T14:41:18.621Z,98272.70
2018-05-16T14:43:48.413Z,98269.19
2018-05-16T14:46:17.675Z,98271.20
2018-05-16T14:48:47.417Z,98276.16
2018-05-16T14:51:25.778Z,98275.66
2018-05-16T14:53:55.675Z,98281.23
2018-05-16T14:56:24.846Z,98286.81
2018-05-16T14:58:57.537Z,98287.34
2018-05-16T15:01:26.399Z,98294.77
2018-05-16T15:03:54.793Z,98295.17
2018-05-16T15:06:23.808Z,98294.41
2018-05-16T15:08:53.740Z,98298.17
2018-05-16T15:11:26.899Z,98299.20
2018-05-16T15:13:55.777Z,98303.44
2018-05-16T15:16:25.470Z,98308.05
2018-05-16T15:18:55.342Z,98306.06
2018-05-16T15:21:25.092Z,98313.36
2018-05-16T15:23:54.163Z,98321.95
2018-05-16T15:26:25.842Z,98317.86
2018-05-16T15:28:55.899Z,98329.91
2018-05-16T15:31:25.506Z,98331.25
2018-05-16T15:33:55.147Z,98337.70
2018-05-16T15:36:24.149Z,98341.28
2018-05-16T15:38:53.167Z,98341.75
2018-05-16T15:41:22.935Z,98344.12
2018-05-16T15:43:52.123Z,98343.86
2018-05-16T15:46:21.514Z,98352.95
2018-05-16T15:48:50.853Z,98350.05
2018-05-16T15:51:20.203Z,98350.98
2018-05-16T15:53:49.823Z,98353.98
2018-05-16T15:56:19.783Z,98358.31
2018-05-16T15:58:49.305Z,98361.42
2018-05-16T16:01:18.757Z,98360.39
2018-05-16T16:03:48.699Z,98359.98
2018-05-16T16:06:18.212Z,98361.53
2018-05-16T16:08:47.684Z,98360.80
2018-05-16T16:11:16.632Z,98360.39
2018-05-16T16:13:46.646Z,98362.45
2018-05-16T16:16:15.893Z,98367.63
2018-05-16T16:18:45.604Z,98369.91
2018-05-16T16:21:14.873Z,98364.80
2018-05-16T16:23:44.788Z,98368.20
2018-05-16T16:26:15.346Z,98365.47
2018-05-16T16:28:44.639Z,98367.48
2018-05-16T16:31:14.219Z,98367.38
2018-05-16T16:33:43.997Z,98369.14
2018-05-16T16:36:14.176Z,98367.80
2018-05-16T16:38:43.371Z,98367.52
2018-05-16T16:41:12.298Z,98361.80
2018-05-16T16:43:41.580Z,98363.97
2018-05-16T16:46:11.540Z,98363.23
2018-05-16T16:48:40.987Z,98369.23
2018-05-16T16:51:10.640Z,98372.44
2018-05-16T16:53:39.495Z,98377.81
2018-05-16T16:56:08.784Z,98372.76
2018-05-16T16:58:38.387Z,98379.06
2018-05-16T17:01:07.955Z,98380.28
2018-05-16T17:03:36.759Z,98379.67
2018-05-16T17:06:06.277Z,98382.22
2018-05-16T17:08:36.488Z,98384.69
2018-05-16T17:11:06.065Z,98383.13
2018-05-16T17:13:35.216Z,98381.62
2018-05-16T17:16:04.917Z,98383.34
2018-05-16T17:18:36.554Z,98386.81
2018-05-16T17:21:05.978Z,98379.46
2018-05-16T17:23:37.091Z,98379.36
2018-05-16T17:26:06.299Z,98378.42
2018-05-16T17:28:35.739Z,98382.52
2018-05-16T17:31:06.021Z,98374.86
2018-05-16T17:33:35.179Z,98376.42
2018-05-16T17:36:06.187Z,98378.59
2018-05-16T17:38:35.894Z,98377.25
2018-05-16T17:41:05.424Z,98372.53
2018-05-16T17:43:34.454Z,98371.56
2018-05-16T17:46:03.261Z,98375.59
2018-05-16T17:48:32.683Z,98371.77
2018-05-16T17:51:02.723Z,98371.36
2018-05-16T17:53:32.225Z,98369.50
2018-05-16T17:56:01.599Z,98366.33
2018-05-16T17:58:30.905Z,98364.06
2018-05-16T18:01:00.950Z,98365.20
2018-05-16T18:03:30.213Z,98363.03
2018-05-16T18:06:00.678Z,98356.95
2018-05-16T18:08:31.429Z,98361.80
2018-05-16T18:11:02.293Z,98353.22
2018-05-16T18:16:44.495Z,98354.86
2018-05-16T18:19:14.173Z,98354.45
2018-05-16T18:21:43.588Z,98350.73
2018-05-16T18:24:14.018Z,98356.83
2018-05-16T18:26:43.685Z,98356.10
2018-05-16T18:29:13.076Z,98354.25
2018-05-16T18:31:41.937Z,98350.22
2018-05-16T18:34:12.966Z,98346.81
2018-05-16T18:36:44.819Z,98348.46
2018-05-16T18:39:14.155Z,98346.60
2018-05-16T18:41:43.691Z,98343.41
2018-05-16T18:44:13.056Z,98343.55
2018-05-16T18:46:42.331Z,98348.62
2018-05-16T18:49:11.982Z,98354.67
2018-05-16T18:51:40.748Z,98351.20
2018-05-16T18:54:09.659Z,98350.80
2018-05-16T18:56:39.834Z,98352.96
2018-05-16T18:59:09.181Z,98357.10
2018-05-16T19:01:38.055Z,98358.05
2018-05-16T19:04:07.457Z,98353.16
2018-05-16T19:06:36.542Z,98350.28
2018-05-16T19:09:06.871Z,98345.25
2018-05-16T19:11:36.660Z,98339.42
2018-05-16T19:14:06.027Z,98344.38
2018-05-16T19:16:36.601Z,98337.97
2018-05-16T19:19:06.348Z,98334.56
2018-05-16T19:21:35.670Z,98344.78
2018-05-16T19:24:07.685Z,98343.66
2018-05-16T19:26:39.311Z,98341.90
2018-05-16T19:29:08.606Z,98343.55
2018-05-16T19:31:38.495Z,98345.73
2018-05-16T19:34:07.331Z,98343.69
2018-05-16T19:36:36.478Z,98345.02
2018-05-16T19:39:06.453Z,98344.70
2018-05-16T19:41:35.909Z,98346.14
2018-05-16T19:44:04.745Z,98349.46
2018-05-16T19:46:33.997Z,98348.67
2018-05-16T19:49:03.316Z,98338.14
2018-05-16T19:51:31.848Z,98342.79
2018-05-16T19:54:01.572Z,98338.77
2018-05-16T19:56:30.936Z,98341.96
2018-05-16T19:59:00.494Z,98342.58
2018-05-16T20:01:30.054Z,98345.53
2018-05-16T20:03:59.722Z,98342.05
2018-05-16T20:06:29.741Z,98344.50
2018-05-16T20:08:58.738Z,98344.70
2018-05-16T20:11:27.828Z,98347.80
2018-05-16T20:13:57.341Z,98345.16
2018-05-16T20:16:26.110Z,98354.25
2018-05-16T20:18:56.250Z,98354.05
2018-05-16T20:21:25.615Z,98358.42
2018-05-16T20:23:54.541Z,98361.53
2018-05-16T20:26:23.550Z,98357.19
2018-05-16T20:28:53.783Z,98362.45
2018-05-16T20:31:23.372Z,98356.25
2018-05-16T20:33:52.993Z,98357.59
2018-05-16T20:36:22.438Z,98356.16
2018-05-16T20:38:52.119Z,98356.88
2018-05-16T20:41:21.121Z,98356.67
2018-05-16T20:43:50.585Z,98353.78
2018-05-16T20:46:20.234Z,98359.36
2018-05-16T20:48:49.055Z,98361.73
2018-05-16T20:51:18.490Z,98358.12
2018-05-16T20:53:47.543Z,98355.22
2018-05-16T20:56:16.753Z,98354.81
2018-05-16T20:58:46.943Z,98348.61
2018-05-16T21:01:15.985Z,98357.59
2018-05-16T21:03:49.259Z,98355.64
2018-05-16T21:06:18.823Z,98357.39
2018-05-16T21:08:47.533Z,98359.39
2018-05-16T21:11:16.969Z,98356.92
2018-05-16T21:13:46.805Z,98356.41
2018-05-16T21:16:16.445Z,98350.03
2018-05-16T21:18:46.192Z,98349.52
2018-05-16T21:21:15.603Z,98353.55
2018-05-16T21:23:45.612Z,98353.14
2018-05-16T21:26:16.184Z,98351.72
2018-05-16T21:28:45.630Z,98348.83
2018-05-16T21:31:15.260Z,98348.21
2018-05-16T21:33:44.434Z,98347.18
2018-05-16T21:36:13.483Z,98345.50
2018-05-16T21:38:43.528Z,98354.79
2018-05-16T21:41:13.122Z,98348.63
2018-05-16T21:43:43.174Z,98340.27
2018-05-16T21:46:12.452Z,98338.30
2018-05-16T21:48:41.464Z,98331.66
2018-05-16T21:51:10.450Z,98340.78
2018-05-16T21:53:40.093Z,98337.06
2018-05-16T21:56:09.780Z,98337.89
2018-05-16T21:58:38.892Z,98336.06
2018-05-16T22:01:07.901Z,98335.14
2018-05-16T22:03:37.403Z,98335.94
2018-05-16T22:06:07.018Z,98335.34
2018-05-16T22:08:37.043Z,98338.75
2018-05-16T22:11:06.628Z,98335.66
2018-05-16T22:13:35.983Z,98342.50
2018-05-16T22:16:05.606Z,98341.98
2018-05-16T22:18:35.318Z,98341.44
2018-05-16T22:21:04.555Z,98342.30
2018-05-16T22:23:34.323Z,98345.70
2018-05-16T22:26:04.964Z,98348.69
2018-05-16T22:28:34.490Z,98353.86
2018-05-16T22:31:09.663Z,98351.38
2018-05-16T22:33:45.093Z,98355.41
2018-05-16T22:36:19.870Z,98360.02
2018-05-16T22:38:55.071Z,98363.73
2018-05-16T22:41:30.504Z,98360.36
2018-05-16T22:44:03.664Z,98359.20
2018-05-16T22:46:33.770Z,98364.48
2018-05-16T22:49:04.604Z,98362.01
2018-05-16T22:51:34.054Z,98363.14
2018-05-16T22:54:03.656Z,98366.89
2018-05-16T22:56:33.959Z,98363.17
2018-05-16T22:59:04.769Z,98367.09
2018-05-16T23:01:34.607Z,98375.79
2018-05-16T23:04:04.169Z,98368.88
2018-05-16T23:06:33.881Z,98377.64
2018-05-16T23:09:04.600Z,98378.27
2018-05-16T23:11:34.388Z,98377.55
2018-05-16T23:14:04.463Z,98377.95
2018-05-16T23:16:34.050Z,98380.74
2018-05-16T23:19:03.728Z,98378.34
2018-05-16T23:21:33.526Z,98384.02
2018-05-16T23:24:03.496Z,98392.39
2018-05-16T23:26:33.551Z,98392.69
2018-05-16T23:29:02.825Z,98390.52
2018-05-16T23:31:32.323Z,98392.41
2018-05-16T23:34:01.209Z,98396.73
2018-05-16T23:36:30.198Z,98398.91
2018-05-16T23:39:00.396Z,98392.12
2018-05-16T23:41:30.204Z,98396.76
2018-05-16T23:43:59.754Z,98397.99
2018-05-16T23:46:29.169Z,98406.89
2018-05-16T23:48:58.438Z,98409.14
2018-05-16T23:51:30.958Z,98407.09
2018-05-16T23:54:00.830Z,98417.63
2018-05-16T23:56:30.318Z,98419.88
2018-05-16T23:58:59.696Z,98424.00
